Chopin — ZDFE4 — position and weather

sailwx.info

Track history (hours):
 
Tides and Currents Weather Stations Pressure Air Temp Water Temp Dewpoint Dewpoint Depression Visibility Wind Speed Wind Dir Waves Ship Positions

Chopin

Last reported at 2015-Apr-16 18:33 UTC. Time now 2015-Apr-21 13:13 UTC.
Position N 49°58' W 002°50'.

Length 104 m; draft 4.4 m.

Type: Cargo ship. MMSI: 236099000.

Date/timePositionNaut miles runAvg speedWind from/ knotsBaromVisibWave heightAir tempDewpointWater temp
2015-Apr-16 18:33N 49°58' W 002°50'9 8.6
2015-Apr-16 17:33N 50°01' W 002°37'8 8.1
2015-Apr-16 16:33N 50°03' W 002°25'9 9.3
2015-Apr-16 15:33N 49°60' W 002°11'2311.5
2015-Apr-16 13:33N 49°53' W 001°37'1313.2
2015-Apr-16 12:34N 49°48' W 001°19'1414.0
2015-Apr-16 11:33N 49°41' W 000°60'1312.8
2015-Apr-16 10:33N 49°35' W 000°42'1211.7
2015-Apr-16 09:33N 49°29' W 000°27'1110.6
2015-Apr-16 08:33N 49°24' W 000°12'3 2.8
2015-Apr-16 07:32N 49°22' W 000°08'0 0.0
2015-Apr-16 06:32N 49°22' W 000°08'0 0.0
2015-Apr-16 05:32N 49°22' W 000°08'0 0.0
2015-Apr-16 04:32N 49°22' W 000°08'0 0.0
2015-Apr-16 03:32N 49°22' W 000°08'0 0.1
2015-Apr-16 02:32N 49°22' W 000°08'0 0.0
2015-Apr-16 01:32N 49°22' W 000°08'0 0.0
2015-Apr-16 00:32N 49°22' W 000°08'0 0.0
2015-Apr-15 23:31N 49°22' W 000°08'0 0.0
2015-Apr-15 22:31N 49°22' W 000°08'0 0.0
2015-Apr-15 21:31N 49°22' W 000°08'0 0.1
2015-Apr-15 20:31N 49°22' W 000°08'0 0.1
2015-Apr-15 19:31N 49°22' W 000°08'0 0.0
2015-Apr-15 18:31N 49°22' W 000°08'0 0.0
2015-Apr-15 17:31N 49°22' W 000°08'0 0.0
2015-Apr-15 16:31N 49°22' W 000°08'0 0.0
2015-Apr-15 15:31N 49°22' W 000°08'0 0.1
2015-Apr-15 14:31N 49°22' W 000°08'0 0.1
2015-Apr-15 13:31N 49°22' W 000°08'0 0.0
2015-Apr-15 12:31N 49°22' W 000°08'0 0.0
2015-Apr-15 11:31N 49°22' W 000°08'0 0.0
2015-Apr-15 10:31N 49°22' W 000°08'0 0.0
2015-Apr-15 09:31N 49°22' W 000°08'0 0.0
2015-Apr-15 08:31N 49°22' W 000°08'0 0.1
2015-Apr-15 07:31N 49°23' W 000°08'0 0.0
2015-Apr-15 06:31N 49°22' W 000°08'0 0.0
2015-Apr-15 05:31N 49°22' W 000°08'0 0.0
2015-Apr-15 04:31N 49°22' W 000°08'0 0.0
2015-Apr-15 03:31N 49°22' W 000°08'0 0.1
2015-Apr-15 02:31N 49°22' W 000°08'0 0.0
2015-Apr-15 01:31N 49°22' W 000°08'0 0.0
2015-Apr-15 00:31N 49°22' W 000°08'0 0.0
2015-Apr-14 23:31N 49°22' W 000°08'0 0.0
2015-Apr-14 22:31N 49°22' W 000°08'0 0.0
2015-Apr-14 21:31N 49°22' W 000°08'0 0.0
2015-Apr-14 20:31N 49°22' W 000°08'0 0.0
2015-Apr-14 19:31N 49°22' W 000°08'0 0.1
2015-Apr-14 18:31N 49°22' W 000°08'0 0.0
2015-Apr-14 17:31N 49°22' W 000°08'0 0.0
2015-Apr-14 16:31N 49°22' W 000°08'0 0.0
2015-Apr-14 15:31N 49°22' W 000°08'0 0.0
2015-Apr-14 14:34N 49°22' W 000°08'0 0.1
2015-Apr-14 13:31N 49°22' W 000°08'0 0.0
2015-Apr-14 12:31N 49°22' W 000°08'0 0.0
2015-Apr-14 11:34N 49°22' W 000°08'0 0.0
2015-Apr-14 10:34N 49°22' W 000°08'0 0.0
2015-Apr-14 09:33N 49°22' W 000°08'0 0.0
2015-Apr-14 08:33N 49°23' W 000°08'0 0.0
2015-Apr-14 07:33N 49°23' W 000°08'0 0.1
2015-Apr-14 06:33N 49°22' W 000°08'0 0.0
2015-Apr-14 05:33N 49°23' W 000°08'0 0.0
2015-Apr-14 04:33N 49°23' W 000°08'0 0.0
2015-Apr-14 03:33N 49°23' W 000°08'0 0.0
2015-Apr-14 02:33N 49°23' W 000°08'0 0.0
2015-Apr-14 01:33N 49°23' W 000°08'0 0.0
2015-Apr-14 00:33N 49°22' W 000°08'0 0.1
2015-Apr-13 23:33N 49°23' W 000°08'0 0.0
2015-Apr-13 22:33N 49°23' W 000°08'0 0.1
2015-Apr-13 21:33N 49°22' W 000°08'0 0.0
2015-Apr-13 20:33N 49°22' W 000°08'0 0.0
2015-Apr-13 19:33N 49°22' W 000°08'0 0.0
2015-Apr-13 18:33N 49°22' W 000°08'0 0.0
2015-Apr-13 17:33N 49°22' W 000°08'0 0.0
2015-Apr-13 16:33N 49°22' W 000°08'0 0.0
2015-Apr-13 15:33N 49°22' W 000°08'0 0.0
2015-Apr-13 14:33N 49°22' W 000°08'0 0.0
2015-Apr-13 13:33N 49°22' W 000°08'0 0.0
2015-Apr-13 12:33N 49°22' W 000°08'0 0.0
2015-Apr-13 11:33N 49°22' W 000°08'0 0.0
2015-Apr-13 10:33N 49°22' W 000°08'0 0.0
2015-Apr-13 09:33N 49°22' W 000°08'0 0.0
2015-Apr-13 08:33N 49°22' W 000°08'0 0.0
2015-Apr-13 07:33N 49°22' W 000°08'0 0.1
2015-Apr-13 06:33N 49°23' W 000°08'0 0.1
2015-Apr-13 05:33N 49°23' W 000°08'0 0.0
2015-Apr-13 04:33N 49°23' W 000°08'0 0.0
2015-Apr-13 03:33N 49°23' W 000°08'0 0.0
2015-Apr-13 02:33N 49°22' W 000°08'0 0.0
2015-Apr-13 01:33N 49°22' W 000°08'0 0.0
2015-Apr-13 00:33N 49°22' W 000°08'0 0.0
2015-Apr-12 23:33N 49°22' W 000°08'0 0.1
2015-Apr-12 22:33N 49°22' W 000°08'0 0.0
2015-Apr-12 21:33N 49°22' W 000°08'0 0.0
2015-Apr-12 20:33N 49°22' W 000°08'0 0.0
2015-Apr-12 19:32N 49°22' W 000°08'0 0.0
2015-Apr-12 18:32N 49°22' W 000°08'0 0.0
2015-Apr-12 17:32N 49°22' W 000°08'0 0.1
2015-Apr-12 16:32N 49°22' W 000°08'0 0.0
2015-Apr-12 15:32N 49°22' W 000°08'0 0.0
2015-Apr-12 14:32N 49°22' W 000°08'0 0.0
2015-Apr-12 13:32N 49°22' W 000°08'0 0.0
2015-Apr-12 12:32N 49°22' W 000°08'0 0.0
2015-Apr-12 11:32N 49°22' W 000°08'0 0.0
2015-Apr-12 10:32N 49°23' W 000°08'0 0.1
2015-Apr-12 09:32N 49°23' W 000°08'0 0.0
2015-Apr-12 08:32N 49°23' W 000°08'0 0.0
2015-Apr-12 07:26N 49°23' W 000°08'0 0.0
2015-Apr-12 06:32N 49°23' W 000°08'0 0.0
2015-Apr-12 05:32N 49°23' W 000°08'0 0.0
2015-Apr-12 04:32N 49°23' W 000°08'0 0.1
2015-Apr-12 03:32N 49°22' W 000°08'0 0.0
2015-Apr-12 02:32N 49°22' W 000°08'0 0.0
2015-Apr-12 01:32N 49°22' W 000°08'0 0.0
2015-Apr-12 00:32N 49°22' W 000°08'0 0.0
2015-Apr-11 23:32N 49°22' W 000°08'0 0.0
2015-Apr-11 22:32N 49°22' W 000°08'0 0.0
2015-Apr-11 21:32N 49°22' W 000°08'0 0.1
2015-Apr-11 20:32N 49°22' W 000°08'0 0.0
2015-Apr-11 19:32N 49°22' W 000°08'0 0.0
2015-Apr-11 18:32N 49°22' W 000°08'0 0.0
2015-Apr-11 17:32N 49°22' W 000°08'0 0.0
2015-Apr-11 16:32N 49°22' W 000°08'0 0.0
2015-Apr-11 15:32N 49°22' W 000°08'0 0.0
2015-Apr-11 14:32N 49°22' W 000°08'0 0.0
2015-Apr-11 13:32N 49°22' W 000°08'0 0.0
2015-Apr-11 12:32N 49°22' W 000°08'0 0.0
2015-Apr-11 11:32N 49°22' W 000°08'0 0.0
2015-Apr-11 10:32N 49°22' W 000°08'0 0.0
2015-Apr-11 09:32N 49°23' W 000°08'0 0.0
2015-Apr-11 08:32N 49°23' W 000°08'0 0.0
2015-Apr-11 07:32N 49°23' W 000°08'0 0.0
2015-Apr-11 06:32N 49°23' W 000°08'0 0.0
2015-Apr-11 05:31N 49°23' W 000°08'0 0.0
2015-Apr-11 04:31N 49°23' W 000°08'0 0.0
2015-Apr-11 03:31N 49°22' W 000°08'0 0.0
2015-Apr-11 02:31N 49°23' W 000°08'0 0.0
2015-Apr-11 01:31N 49°23' W 000°08'0 0.0
2015-Apr-11 00:31N 49°23' W 000°08'0 0.0
2015-Apr-10 23:31N 49°23' W 000°08'0 0.0
2015-Apr-10 22:31N 49°22' W 000°08'0 0.0
2015-Apr-10 21:31N 49°23' W 000°08'0 0.0
2015-Apr-10 20:31N 49°23' W 000°08'0 0.0
2015-Apr-10 19:31N 49°23' W 000°08'0 0.1
2015-Apr-10 18:31N 49°22' W 000°08'0 0.0
2015-Apr-10 17:31N 49°22' W 000°08'0 0.0
2015-Apr-10 16:31N 49°22' W 000°08'0 0.0
2015-Apr-10 15:31N 49°22' W 000°08'0 0.1
2015-Apr-10 14:31N 49°22' W 000°08'0 0.1
2015-Apr-10 13:31N 49°22' W 000°08'0 0.0
2015-Apr-10 12:31N 49°22' W 000°08'0 0.0
2015-Apr-10 11:31N 49°22' W 000°08'0 0.0
2015-Apr-10 10:31N 49°22' W 000°08'0 0.0
2015-Apr-10 09:31N 49°22' W 000°08'0 0.1
2015-Apr-10 08:31N 49°22' W 000°09'0 0.0
2015-Apr-10 07:31N 49°22' W 000°09'0 0.0
2015-Apr-10 06:31N 49°22' W 000°09'0 0.0
2015-Apr-10 05:31N 49°22' W 000°09'0 0.0
2015-Apr-10 04:31N 49°22' W 000°08'0 0.0
2015-Apr-10 03:31N 49°22' W 000°09'0 0.0
2015-Apr-10 02:31N 49°22' W 000°08'0 0.1
2015-Apr-10 01:31N 49°23' W 000°08'0 0.0
2015-Apr-10 00:31N 49°23' W 000°08'0 0.0
2015-Apr-09 23:31N 49°22' W 000°08'0 0.1
2015-Apr-09 22:31N 49°23' W 000°08'0 0.1
2015-Apr-09 21:31N 49°22' W 000°08'0 0.0
2015-Apr-09 20:31N 49°22' W 000°08'0 0.0
2015-Apr-09 19:31N 49°22' W 000°09'0 0.0
2015-Apr-09 18:31N 49°22' W 000°08'0 0.0
2015-Apr-09 17:31N 49°22' W 000°08'0 0.0
2015-Apr-09 16:34N 49°22' W 000°08'0 0.0
2015-Apr-09 15:30N 49°22' W 000°08'0 0.0
2015-Apr-09 14:30N 49°22' W 000°08'0 0.0
2015-Apr-09 13:33N 49°22' W 000°08'5 5.3
2015-Apr-09 12:33N 49°19' W 000°15'6 6.1
2015-Apr-09 11:33N 49°13' W 000°18'0 0.4
2015-Apr-09 10:31N 49°14' W 000°18'0 0.0
2015-Apr-09 09:31N 49°14' W 000°18'0 0.0
2015-Apr-09 08:31N 49°14' W 000°18'0 0.0
2015-Apr-09 07:31N 49°14' W 000°18'0 0.0
2015-Apr-09 06:31N 49°14' W 000°18'0 0.0
2015-Apr-09 05:31N 49°14' W 000°18'0 0.0
2015-Apr-09 04:31N 49°14' W 000°18'0 0.0
2015-Apr-09 03:31N 49°14' W 000°18'0 0.0
2015-Apr-09 02:28N 49°14' W 000°18'0 0.0
2015-Apr-09 01:31N 49°14' W 000°18'0 0.0
2015-Apr-09 00:31N 49°14' W 000°18'0 0.0
2015-Apr-08 23:31N 49°14' W 000°18'0 0.0
2015-Apr-08 22:31N 49°14' W 000°18'0 0.0
2015-Apr-08 21:31N 49°14' W 000°18'0 0.0
2015-Apr-08 20:31N 49°14' W 000°18'0 0.0
2015-Apr-08 19:31N 49°14' W 000°18'0 0.0
2015-Apr-08 18:31N 49°14' W 000°18'0 0.0
2015-Apr-08 17:34N 49°14' W 000°18'0 0.0
2015-Apr-08 16:30N 49°14' W 000°18'0 0.0
2015-Apr-08 15:33N 49°14' W 000°18'0 0.0
2015-Apr-08 14:33N 49°14' W 000°18'0 0.0
2015-Apr-08 13:33N 49°14' W 000°18'0 0.0
2015-Apr-08 12:33N 49°14' W 000°18'0 0.0
2015-Apr-08 11:33N 49°14' W 000°18'0 0.0
2015-Apr-08 10:33N 49°14' W 000°18'0 0.0
2015-Apr-08 09:33N 49°14' W 000°18'0 0.0
2015-Apr-08 08:33N 49°14' W 000°18'0 0.0
2015-Apr-08 07:33N 49°14' W 000°18'0 0.0
2015-Apr-08 06:33N 49°14' W 000°18'0 0.0
2015-Apr-08 05:33N 49°14' W 000°18'0 0.0
2015-Apr-08 04:33N 49°14' W 000°18'0 0.0
2015-Apr-08 03:33N 49°14' W 000°18'0 0.0
2015-Apr-08 02:33N 49°14' W 000°18'0 0.0
2015-Apr-08 01:30N 49°14' W 000°18'0 0.0
2015-Apr-08 00:33N 49°14' W 000°18'0 0.0
2015-Apr-07 23:33N 49°14' W 000°18'0 0.0
2015-Apr-07 22:33N 49°14' W 000°18'0 0.0
2015-Apr-07 21:33N 49°14' W 000°18'0 0.0
2015-Apr-07 20:33N 49°14' W 000°18'0 0.0
2015-Apr-07 19:33N 49°14' W 000°18'0 0.0
2015-Apr-07 18:33N 49°14' W 000°18'0 0.0
2015-Apr-07 17:33N 49°14' W 000°18'0 0.0
2015-Apr-07 16:33N 49°14' W 000°18'0 0.0
2015-Apr-07 15:33N 49°14' W 000°18'0 0.0
2015-Apr-07 14:33N 49°14' W 000°18'0 0.0
2015-Apr-07 13:33N 49°14' W 000°18'0 0.0
2015-Apr-07 12:33N 49°14' W 000°18'0 0.0
2015-Apr-07 11:33N 49°14' W 000°18'0 0.0
2015-Apr-07 10:33N 49°14' W 000°18'0 0.0
2015-Apr-07 09:33N 49°14' W 000°18'4 3.6
2015-Apr-07 08:33N 49°17' W 000°15'4 4.1
2015-Apr-07 07:33N 49°21' W 000°14'8 8.3
2015-Apr-07 06:33N 49°29' W 000°13'1010.5
2015-Apr-07 05:33N 49°40' W 000°11'55 9.0
2015-Apr-06 23:28N 50°31' E 000°18'8 8.4
2015-Apr-06 22:33N 50°34' E 000°29'8 8.3
2015-Apr-06 21:33N 50°37' E 000°41'10 9.6
2015-Apr-06 20:33N 50°42' E 000°54'1110.9
2015-Apr-06 19:33N 50°49' E 001°07'  
Track history (hours):
 
Tides and Currents Weather Stations Pressure Air Temp Water Temp Dewpoint Dewpoint Depression Visibility Wind Speed Wind Dir Waves Ship Positions

Chopin

Last reported at 2015-Apr-16 18:33 UTC. Time now 2015-Apr-21 13:13 UTC.
Position N 49°58' W 002°50'.

Length 104 m; draft 4.4 m.

Type: Cargo ship. MMSI: 236099000.

Date/timePositionNaut miles runAvg speedWind from/ knotsBaromVisibWave heightAir tempDewpointWater temp
2015-Apr-16 18:33N 49°58' W 002°50'9 8.6
2015-Apr-16 17:33N 50°01' W 002°37'8 8.1
2015-Apr-16 16:33N 50°03' W 002°25'9 9.3
2015-Apr-16 15:33N 49°60' W 002°11'2311.5
2015-Apr-16 13:33N 49°53' W 001°37'1313.2
2015-Apr-16 12:34N 49°48' W 001°19'1414.0
2015-Apr-16 11:33N 49°41' W 000°60'1312.8
2015-Apr-16 10:33N 49°35' W 000°42'1211.7
2015-Apr-16 09:33N 49°29' W 000°27'1110.6
2015-Apr-16 08:33N 49°24' W 000°12'3 2.8
2015-Apr-16 07:32N 49°22' W 000°08'0 0.0
2015-Apr-16 06:32N 49°22' W 000°08'0 0.0
2015-Apr-16 05:32N 49°22' W 000°08'0 0.0
2015-Apr-16 04:32N 49°22' W 000°08'0 0.0
2015-Apr-16 03:32N 49°22' W 000°08'0 0.1
2015-Apr-16 02:32N 49°22' W 000°08'0 0.0
2015-Apr-16 01:32N 49°22' W 000°08'0 0.0
2015-Apr-16 00:32N 49°22' W 000°08'0 0.0
2015-Apr-15 23:31N 49°22' W 000°08'0 0.0
2015-Apr-15 22:31N 49°22' W 000°08'0 0.0
2015-Apr-15 21:31N 49°22' W 000°08'0 0.1
2015-Apr-15 20:31N 49°22' W 000°08'0 0.1
2015-Apr-15 19:31N 49°22' W 000°08'0 0.0
2015-Apr-15 18:31N 49°22' W 000°08'0 0.0
2015-Apr-15 17:31N 49°22' W 000°08'0 0.0
2015-Apr-15 16:31N 49°22' W 000°08'0 0.0
2015-Apr-15 15:31N 49°22' W 000°08'0 0.1
2015-Apr-15 14:31N 49°22' W 000°08'0 0.1
2015-Apr-15 13:31N 49°22' W 000°08'0 0.0
2015-Apr-15 12:31N 49°22' W 000°08'0 0.0
2015-Apr-15 11:31N 49°22' W 000°08'0 0.0
2015-Apr-15 10:31N 49°22' W 000°08'0 0.0
2015-Apr-15 09:31N 49°22' W 000°08'0 0.0
2015-Apr-15 08:31N 49°22' W 000°08'0 0.1
2015-Apr-15 07:31N 49°23' W 000°08'0 0.0
2015-Apr-15 06:31N 49°22' W 000°08'0 0.0
2015-Apr-15 05:31N 49°22' W 000°08'0 0.0
2015-Apr-15 04:31N 49°22' W 000°08'0 0.0
2015-Apr-15 03:31N 49°22' W 000°08'0 0.1
2015-Apr-15 02:31N 49°22' W 000°08'0 0.0
2015-Apr-15 01:31N 49°22' W 000°08'0 0.0
2015-Apr-15 00:31N 49°22' W 000°08'0 0.0
2015-Apr-14 23:31N 49°22' W 000°08'0 0.0
2015-Apr-14 22:31N 49°22' W 000°08'0 0.0
2015-Apr-14 21:31N 49°22' W 000°08'0 0.0
2015-Apr-14 20:31N 49°22' W 000°08'0 0.0
2015-Apr-14 19:31N 49°22' W 000°08'0 0.1
2015-Apr-14 18:31N 49°22' W 000°08'0 0.0
2015-Apr-14 17:31N 49°22' W 000°08'0 0.0
2015-Apr-14 16:31N 49°22' W 000°08'0 0.0
2015-Apr-14 15:31N 49°22' W 000°08'0 0.0
2015-Apr-14 14:34N 49°22' W 000°08'0 0.1
2015-Apr-14 13:31N 49°22' W 000°08'0 0.0
2015-Apr-14 12:31N 49°22' W 000°08'0 0.0
2015-Apr-14 11:34N 49°22' W 000°08'0 0.0
2015-Apr-14 10:34N 49°22' W 000°08'0 0.0
2015-Apr-14 09:33N 49°22' W 000°08'0 0.0
2015-Apr-14 08:33N 49°23' W 000°08'0 0.0
2015-Apr-14 07:33N 49°23' W 000°08'0 0.1
2015-Apr-14 06:33N 49°22' W 000°08'0 0.0
2015-Apr-14 05:33N 49°23' W 000°08'0 0.0
2015-Apr-14 04:33N 49°23' W 000°08'0 0.0
2015-Apr-14 03:33N 49°23' W 000°08'0 0.0
2015-Apr-14 02:33N 49°23' W 000°08'0 0.0
2015-Apr-14 01:33N 49°23' W 000°08'0 0.0
2015-Apr-14 00:33N 49°22' W 000°08'0 0.1
2015-Apr-13 23:33N 49°23' W 000°08'0 0.0
2015-Apr-13 22:33N 49°23' W 000°08'0 0.1
2015-Apr-13 21:33N 49°22' W 000°08'0 0.0
2015-Apr-13 20:33N 49°22' W 000°08'0 0.0
2015-Apr-13 19:33N 49°22' W 000°08'0 0.0
2015-Apr-13 18:33N 49°22' W 000°08'0 0.0
2015-Apr-13 17:33N 49°22' W 000°08'0 0.0
2015-Apr-13 16:33N 49°22' W 000°08'0 0.0
2015-Apr-13 15:33N 49°22' W 000°08'0 0.0
2015-Apr-13 14:33N 49°22' W 000°08'0 0.0
2015-Apr-13 13:33N 49°22' W 000°08'0 0.0
2015-Apr-13 12:33N 49°22' W 000°08'0 0.0
2015-Apr-13 11:33N 49°22' W 000°08'0 0.0
2015-Apr-13 10:33N 49°22' W 000°08'0 0.0
2015-Apr-13 09:33N 49°22' W 000°08'0 0.0
2015-Apr-13 08:33N 49°22' W 000°08'0 0.0
2015-Apr-13 07:33N 49°22' W 000°08'0 0.1
2015-Apr-13 06:33N 49°23' W 000°08'0 0.1
2015-Apr-13 05:33N 49°23' W 000°08'0 0.0
2015-Apr-13 04:33N 49°23' W 000°08'0 0.0
2015-Apr-13 03:33N 49°23' W 000°08'0 0.0
2015-Apr-13 02:33N 49°22' W 000°08'0 0.0
2015-Apr-13 01:33N 49°22' W 000°08'0 0.0
2015-Apr-13 00:33N 49°22' W 000°08'0 0.0
2015-Apr-12 23:33N 49°22' W 000°08'0 0.1
2015-Apr-12 22:33N 49°22' W 000°08'0 0.0
2015-Apr-12 21:33N 49°22' W 000°08'0 0.0
2015-Apr-12 20:33N 49°22' W 000°08'0 0.0
2015-Apr-12 19:32N 49°22' W 000°08'0 0.0
2015-Apr-12 18:32N 49°22' W 000°08'0 0.0
2015-Apr-12 17:32N 49°22' W 000°08'0 0.1
2015-Apr-12 16:32N 49°22' W 000°08'0 0.0
2015-Apr-12 15:32N 49°22' W 000°08'0 0.0
2015-Apr-12 14:32N 49°22' W 000°08'0 0.0
2015-Apr-12 13:32N 49°22' W 000°08'0 0.0
2015-Apr-12 12:32N 49°22' W 000°08'0 0.0
2015-Apr-12 11:32N 49°22' W 000°08'0 0.0
2015-Apr-12 10:32N 49°23' W 000°08'0 0.1
2015-Apr-12 09:32N 49°23' W 000°08'0 0.0
2015-Apr-12 08:32N 49°23' W 000°08'0 0.0
2015-Apr-12 07:26N 49°23' W 000°08'0 0.0
2015-Apr-12 06:32N 49°23' W 000°08'0 0.0
2015-Apr-12 05:32N 49°23' W 000°08'0 0.0
2015-Apr-12 04:32N 49°23' W 000°08'0 0.1
2015-Apr-12 03:32N 49°22' W 000°08'0 0.0
2015-Apr-12 02:32N 49°22' W 000°08'0 0.0
2015-Apr-12 01:32N 49°22' W 000°08'0 0.0
2015-Apr-12 00:32N 49°22' W 000°08'0 0.0
2015-Apr-11 23:32N 49°22' W 000°08'0 0.0
2015-Apr-11 22:32N 49°22' W 000°08'0 0.0
2015-Apr-11 21:32N 49°22' W 000°08'0 0.1
2015-Apr-11 20:32N 49°22' W 000°08'0 0.0
2015-Apr-11 19:32N 49°22' W 000°08'0 0.0
2015-Apr-11 18:32N 49°22' W 000°08'0 0.0
2015-Apr-11 17:32N 49°22' W 000°08'0 0.0
2015-Apr-11 16:32N 49°22' W 000°08'0 0.0
2015-Apr-11 15:32N 49°22' W 000°08'0 0.0
2015-Apr-11 14:32N 49°22' W 000°08'0 0.0
2015-Apr-11 13:32N 49°22' W 000°08'0 0.0
2015-Apr-11 12:32N 49°22' W 000°08'0 0.0
2015-Apr-11 11:32N 49°22' W 000°08'0 0.0
2015-Apr-11 10:32N 49°22' W 000°08'0 0.0
2015-Apr-11 09:32N 49°23' W 000°08'0 0.0
2015-Apr-11 08:32N 49°23' W 000°08'0 0.0
2015-Apr-11 07:32N 49°23' W 000°08'0 0.0
2015-Apr-11 06:32N 49°23' W 000°08'0 0.0
2015-Apr-11 05:31N 49°23' W 000°08'0 0.0
2015-Apr-11 04:31N 49°23' W 000°08'0 0.0
2015-Apr-11 03:31N 49°22' W 000°08'0 0.0
2015-Apr-11 02:31N 49°23' W 000°08'0 0.0
2015-Apr-11 01:31N 49°23' W 000°08'0 0.0
2015-Apr-11 00:31N 49°23' W 000°08'0 0.0
2015-Apr-10 23:31N 49°23' W 000°08'0 0.0
2015-Apr-10 22:31N 49°22' W 000°08'0 0.0
2015-Apr-10 21:31N 49°23' W 000°08'0 0.0
2015-Apr-10 20:31N 49°23' W 000°08'0 0.0
2015-Apr-10 19:31N 49°23' W 000°08'0 0.1
2015-Apr-10 18:31N 49°22' W 000°08'0 0.0
2015-Apr-10 17:31N 49°22' W 000°08'0 0.0
2015-Apr-10 16:31N 49°22' W 000°08'0 0.0
2015-Apr-10 15:31N 49°22' W 000°08'0 0.1
2015-Apr-10 14:31N 49°22' W 000°08'0 0.1
2015-Apr-10 13:31N 49°22' W 000°08'0 0.0
2015-Apr-10 12:31N 49°22' W 000°08'0 0.0
2015-Apr-10 11:31N 49°22' W 000°08'0 0.0
2015-Apr-10 10:31N 49°22' W 000°08'0 0.0
2015-Apr-10 09:31N 49°22' W 000°08'0 0.1
2015-Apr-10 08:31N 49°22' W 000°09'0 0.0
2015-Apr-10 07:31N 49°22' W 000°09'0 0.0
2015-Apr-10 06:31N 49°22' W 000°09'0 0.0
2015-Apr-10 05:31N 49°22' W 000°09'0 0.0
2015-Apr-10 04:31N 49°22' W 000°08'0 0.0
2015-Apr-10 03:31N 49°22' W 000°09'0 0.0
2015-Apr-10 02:31N 49°22' W 000°08'0 0.1
2015-Apr-10 01:31N 49°23' W 000°08'0 0.0
2015-Apr-10 00:31N 49°23' W 000°08'0 0.0
2015-Apr-09 23:31N 49°22' W 000°08'0 0.1
2015-Apr-09 22:31N 49°23' W 000°08'0 0.1
2015-Apr-09 21:31N 49°22' W 000°08'0 0.0
2015-Apr-09 20:31N 49°22' W 000°08'0 0.0
2015-Apr-09 19:31N 49°22' W 000°09'0 0.0
2015-Apr-09 18:31N 49°22' W 000°08'0 0.0
2015-Apr-09 17:31N 49°22' W 000°08'0 0.0
2015-Apr-09 16:34N 49°22' W 000°08'0 0.0
2015-Apr-09 15:30N 49°22' W 000°08'0 0.0
2015-Apr-09 14:30N 49°22' W 000°08'0 0.0
2015-Apr-09 13:33N 49°22' W 000°08'5 5.3
2015-Apr-09 12:33N 49°19' W 000°15'6 6.1
2015-Apr-09 11:33N 49°13' W 000°18'0 0.4
2015-Apr-09 10:31N 49°14' W 000°18'0 0.0
2015-Apr-09 09:31N 49°14' W 000°18'0 0.0
2015-Apr-09 08:31N 49°14' W 000°18'0 0.0
2015-Apr-09 07:31N 49°14' W 000°18'0 0.0
2015-Apr-09 06:31N 49°14' W 000°18'0 0.0
2015-Apr-09 05:31N 49°14' W 000°18'0 0.0
2015-Apr-09 04:31N 49°14' W 000°18'0 0.0
2015-Apr-09 03:31N 49°14' W 000°18'0 0.0
2015-Apr-09 02:28N 49°14' W 000°18'0 0.0
2015-Apr-09 01:31N 49°14' W 000°18'0 0.0
2015-Apr-09 00:31N 49°14' W 000°18'0 0.0
2015-Apr-08 23:31N 49°14' W 000°18'0 0.0
2015-Apr-08 22:31N 49°14' W 000°18'0 0.0
2015-Apr-08 21:31N 49°14' W 000°18'0 0.0
2015-Apr-08 20:31N 49°14' W 000°18'0 0.0
2015-Apr-08 19:31N 49°14' W 000°18'0 0.0
2015-Apr-08 18:31N 49°14' W 000°18'0 0.0
2015-Apr-08 17:34N 49°14' W 000°18'0 0.0
2015-Apr-08 16:30N 49°14' W 000°18'0 0.0
2015-Apr-08 15:33N 49°14' W 000°18'0 0.0
2015-Apr-08 14:33N 49°14' W 000°18'0 0.0
2015-Apr-08 13:33N 49°14' W 000°18'0 0.0
2015-Apr-08 12:33N 49°14' W 000°18'0 0.0
2015-Apr-08 11:33N 49°14' W 000°18'0 0.0
2015-Apr-08 10:33N 49°14' W 000°18'0 0.0
2015-Apr-08 09:33N 49°14' W 000°18'0 0.0
2015-Apr-08 08:33N 49°14' W 000°18'0 0.0
2015-Apr-08 07:33N 49°14' W 000°18'0 0.0
2015-Apr-08 06:33N 49°14' W 000°18'0 0.0
2015-Apr-08 05:33N 49°14' W 000°18'0 0.0
2015-Apr-08 04:33N 49°14' W 000°18'0 0.0
2015-Apr-08 03:33N 49°14' W 000°18'0 0.0
2015-Apr-08 02:33N 49°14' W 000°18'0 0.0
2015-Apr-08 01:30N 49°14' W 000°18'0 0.0
2015-Apr-08 00:33N 49°14' W 000°18'0 0.0
2015-Apr-07 23:33N 49°14' W 000°18'0 0.0
2015-Apr-07 22:33N 49°14' W 000°18'0 0.0
2015-Apr-07 21:33N 49°14' W 000°18'0 0.0
2015-Apr-07 20:33N 49°14' W 000°18'0 0.0
2015-Apr-07 19:33N 49°14' W 000°18'0 0.0
2015-Apr-07 18:33N 49°14' W 000°18'0 0.0
2015-Apr-07 17:33N 49°14' W 000°18'0 0.0
2015-Apr-07 16:33N 49°14' W 000°18'0 0.0
2015-Apr-07 15:33N 49°14' W 000°18'0 0.0
2015-Apr-07 14:33N 49°14' W 000°18'0 0.0
2015-Apr-07 13:33N 49°14' W 000°18'0 0.0
2015-Apr-07 12:33N 49°14' W 000°18'0 0.0
2015-Apr-07 11:33N 49°14' W 000°18'0 0.0
2015-Apr-07 10:33N 49°14' W 000°18'0 0.0
2015-Apr-07 09:33N 49°14' W 000°18'4 3.6
2015-Apr-07 08:33N 49°17' W 000°15'4 4.1
2015-Apr-07 07:33N 49°21' W 000°14'8 8.3
2015-Apr-07 06:33N 49°29' W 000°13'1010.5
2015-Apr-07 05:33N 49°40' W 000°11'55 9.0
2015-Apr-06 23:28N 50°31' E 000°18'8 8.4
2015-Apr-06 22:33N 50°34' E 000°29'8 8.3
2015-Apr-06 21:33N 50°37' E 000°41'10 9.6
2015-Apr-06 20:33N 50°42' E 000°54'1110.9
2015-Apr-06 19:33N 50°49' E 001°07'  

Dump ship's entire track history